createdAt,value
2023-03-05T00:01:08.721Z,101452.78
2023-03-05T00:03:36.760Z,101445.00
2023-03-05T00:06:05.349Z,101447.50
2023-03-05T00:08:35.665Z,101452.78
2023-03-05T00:11:05.434Z,101442.25
2023-03-05T00:13:33.943Z,101453.50
2023-03-05T00:16:05.380Z,101456.09
2023-03-05T00:18:33.518Z,101451.78
2023-03-05T00:21:01.468Z,101450.91
2023-03-05T00:23:29.568Z,101443.97
2023-03-05T00:26:03.546Z,101435.38
2023-03-05T00:28:31.458Z,101447.47
2023-03-05T00:31:01.538Z,101448.31
2023-03-05T00:33:29.933Z,101443.91
2023-03-05T00:35:58.696Z,101439.50
2023-03-05T00:38:26.696Z,101440.38
2023-03-05T00:40:54.779Z,101442.91
2023-03-05T00:43:24.113Z,101433.38
2023-03-05T00:45:52.014Z,101442.84
2023-03-05T00:48:20.014Z,101439.41
2023-03-05T00:50:47.892Z,101436.78
2023-03-05T00:53:15.808Z,101422.16
2023-03-05T00:55:43.665Z,101427.28
2023-03-05T00:58:11.785Z,101422.03
2023-03-05T01:00:41.144Z,101421.09
2023-03-05T01:03:10.041Z,101427.16
2023-03-05T01:05:38.222Z,101424.56
2023-03-05T01:08:06.656Z,101418.44
2023-03-05T01:10:34.980Z,101413.34
2023-03-05T01:13:02.845Z,101411.56
2023-03-05T01:15:30.747Z,101407.22
2023-03-05T01:18:00.119Z,101402.03
2023-03-05T01:20:28.061Z,101399.41
2023-03-05T01:22:56.274Z,101410.63
2023-03-05T01:25:24.174Z,101406.19
2023-03-05T01:27:52.609Z,101401.81
2023-03-05T01:30:21.182Z,101400.88
2023-03-05T01:32:49.874Z,101392.19
2023-03-05T01:35:21.363Z,101399.97
2023-03-05T01:37:49.717Z,101388.75
2023-03-05T01:40:22.028Z,101393.03
2023-03-05T01:42:56.324Z,101398.97
2023-03-05T01:45:24.493Z,101387.84
2023-03-05T01:47:52.385Z,101377.59
2023-03-05T01:50:26.139Z,101384.44
2023-03-05T01:52:59.652Z,101380.16
2023-03-05T01:55:30.828Z,101367.22
2023-03-05T01:58:02.863Z,101377.56
2023-03-05T02:00:33.693Z,101369.81
2023-03-05T02:03:06.166Z,101361.16
2023-03-05T02:05:36.600Z,101363.75
2023-03-05T02:08:07.274Z,101355.91
2023-03-05T02:10:37.754Z,101345.56
2023-03-05T02:13:09.169Z,101345.69
2023-03-05T02:15:37.709Z,101344.75
2023-03-05T02:18:06.754Z,101344.66
2023-03-05T02:20:46.948Z,101346.34
2023-03-05T02:23:17.639Z,101343.72
2023-03-05T02:25:45.796Z,101335.94
2023-03-05T02:28:19.460Z,101334.94
2023-03-05T02:30:48.064Z,101334.84
2023-03-05T02:33:17.065Z,101340.00
2023-03-05T02:35:46.488Z,101328.06
2023-03-05T02:38:18.919Z,101326.34
2023-03-05T02:40:47.034Z,101323.69
2023-03-05T02:43:17.044Z,101326.38
2023-03-05T02:45:45.162Z,101313.44
2023-03-05T02:48:13.434Z,101314.25
2023-03-05T02:50:42.604Z,101309.97
2023-03-05T02:53:10.736Z,101317.66
2023-03-05T02:58:30.134Z,101312.50
2023-03-05T03:00:58.113Z,101306.53
2023-03-05T03:03:26.045Z,101297.91
2023-03-05T03:05:53.943Z,101298.75
2023-03-05T03:08:21.797Z,101305.56
2023-03-05T03:10:51.009Z,101294.31
2023-03-05T03:13:18.852Z,101294.34
2023-03-05T03:15:47.323Z,101302.91
2023-03-05T03:18:15.256Z,101303.00
2023-03-05T03:20:43.197Z,101297.78
2023-03-05T03:23:11.189Z,101302.13
2023-03-05T03:25:39.287Z,101295.25
2023-03-05T03:28:08.656Z,101290.94
2023-03-05T03:30:36.842Z,101281.50
2023-03-05T03:33:04.920Z,101291.75
2023-03-05T03:35:33.311Z,101292.56
2023-03-05T03:38:01.356Z,101285.63
2023-03-05T03:40:29.230Z,101282.25
2023-03-05T03:42:57.119Z,101279.41
2023-03-05T03:45:26.355Z,101272.47
2023-03-05T03:47:54.218Z,101277.66
2023-03-05T03:50:24.897Z,101272.47
2023-03-05T03:52:53.124Z,101265.47
2023-03-05T03:55:21.003Z,101262.06
2023-03-05T03:57:49.207Z,101266.34
2023-03-05T04:00:18.225Z,101254.31
2023-03-05T04:02:47.468Z,101255.19
2023-03-05T04:05:15.697Z,101255.97
2023-03-05T04:07:45.380Z,101253.38
2023-03-05T04:10:13.797Z,101254.31
2023-03-05T04:12:42.956Z,101244.78
2023-03-05T04:15:11.865Z,101246.53
2023-03-05T04:17:39.859Z,101235.44
2023-03-05T04:20:10.575Z,101236.25
2023-03-05T04:22:39.220Z,101235.44
2023-03-05T04:25:08.563Z,101234.50
2023-03-05T04:27:37.465Z,101228.34
2023-03-05T04:30:06.197Z,101231.78
2023-03-05T04:32:34.523Z,101228.34
2023-03-05T04:35:02.389Z,101226.56
2023-03-05T04:37:31.649Z,101227.41
2023-03-05T04:39:59.594Z,101224.75
2023-03-05T04:42:27.734Z,101220.41
2023-03-05T04:44:55.613Z,101215.31
2023-03-05T04:47:23.478Z,101223.13
2023-03-05T04:49:51.308Z,101225.81
2023-03-05T04:52:19.120Z,101208.41
2023-03-05T04:54:48.521Z,101204.06
2023-03-05T04:57:16.363Z,101208.47
2023-03-05T04:59:44.301Z,101203.31
2023-03-05T05:02:12.327Z,101201.59
2023-03-05T05:04:40.480Z,101199.94
2023-03-05T05:07:08.639Z,101204.25
2023-03-05T05:09:36.529Z,101201.66
2023-03-05T05:12:06.451Z,101199.91
2023-03-05T05:14:34.917Z,101204.13
2023-03-05T05:17:05.055Z,101198.91
2023-03-05T05:19:33.142Z,101190.38
2023-03-05T05:22:01.150Z,101179.94
2023-03-05T05:24:29.013Z,101195.38
2023-03-05T05:26:57.188Z,101185.88
2023-03-05T05:29:26.521Z,101191.91
2023-03-05T05:31:54.642Z,101191.97
2023-03-05T05:34:24.421Z,101185.06
2023-03-05T05:36:52.711Z,101182.47
2023-03-05T05:39:20.748Z,101183.34
2023-03-05T05:41:51.765Z,101177.28
2023-03-05T05:44:19.971Z,101182.41
2023-03-05T05:46:49.388Z,101176.41
2023-03-05T05:49:17.610Z,101182.34
2023-03-05T05:51:45.533Z,101181.56
2023-03-05T05:54:14.490Z,101184.09
2023-03-05T05:56:43.187Z,101191.03
2023-03-05T05:59:11.820Z,101187.56
2023-03-05T06:01:39.778Z,101180.66
2023-03-05T06:04:09.127Z,101174.59
2023-03-05T06:06:37.076Z,101170.31
2023-03-05T06:09:05.831Z,101187.50
2023-03-05T06:11:34.075Z,101178.06
2023-03-05T06:14:03.686Z,101184.13
2023-03-05T06:16:32.106Z,101183.22
2023-03-05T06:19:00.135Z,101178.06
2023-03-05T06:21:29.335Z,101184.13
2023-03-05T06:23:58.660Z,101185.81
2023-03-05T06:26:27.284Z,101181.56
2023-03-05T06:28:55.523Z,101178.88
2023-03-05T06:31:25.954Z,101188.44
2023-03-05T06:33:55.443Z,101179.00
2023-03-05T06:36:25.470Z,101184.13
2023-03-05T06:38:55.374Z,101186.81
2023-03-05T06:41:25.077Z,101188.53
2023-03-05T06:43:53.198Z,101183.34
2023-03-05T06:46:23.346Z,101181.63
2023-03-05T06:48:52.559Z,101185.16
2023-03-05T06:51:22.942Z,101179.94
2023-03-05T06:53:51.556Z,101185.16
2023-03-05T06:56:21.732Z,101180.00
2023-03-05T06:58:51.844Z,101177.50
2023-03-05T07:01:20.665Z,101184.34
2023-03-05T07:03:50.787Z,101180.75
2023-03-05T07:06:19.142Z,101177.31
2023-03-05T07:08:47.284Z,101166.06
2023-03-05T07:11:16.807Z,101170.34
2023-03-05T07:13:47.710Z,101159.25
2023-03-05T07:16:18.098Z,101167.22
2023-03-05T07:18:46.335Z,101159.47
2023-03-05T07:21:17.796Z,101168.13
2023-03-05T07:23:45.721Z,101164.81
2023-03-05T07:26:13.932Z,101149.44
2023-03-05T07:28:42.450Z,101159.09
2023-03-05T07:31:14.618Z,101156.72
2023-03-05T07:33:42.878Z,101148.22
2023-03-05T07:36:11.490Z,101147.34
2023-03-05T07:38:39.862Z,101151.78
2023-03-05T07:41:09.895Z,101156.78
2023-03-05T07:43:38.588Z,101158.56
2023-03-05T07:46:07.475Z,101151.66
2023-03-05T07:48:36.915Z,101154.38
2023-03-05T07:51:06.408Z,101148.41
2023-03-05T07:53:34.419Z,101149.16
2023-03-05T07:56:02.841Z,101153.34
2023-03-05T07:58:30.764Z,101154.41
2023-03-05T08:00:58.873Z,101151.19
2023-03-05T08:03:27.031Z,101145.16
2023-03-05T08:05:56.275Z,101142.41
2023-03-05T08:08:24.121Z,101147.94
2023-03-05T08:10:52.002Z,101137.75
2023-03-05T08:13:19.881Z,101136.19
2023-03-05T08:15:47.701Z,101135.28
2023-03-05T08:18:18.845Z,101130.25
2023-03-05T08:20:46.806Z,101134.47
2023-03-05T08:23:16.156Z,101129.19
2023-03-05T08:25:44.492Z,101127.38
2023-03-05T08:28:12.820Z,101125.47
2023-03-05T08:30:42.186Z,101118.66
2023-03-05T08:33:10.301Z,101114.31
2023-03-05T08:35:38.309Z,101120.53
2023-03-05T08:38:06.396Z,101115.50
2023-03-05T08:40:35.748Z,101116.34
2023-03-05T08:43:05.792Z,101113.72
2023-03-05T08:45:33.847Z,101109.44
2023-03-05T08:48:01.901Z,101100.84
2023-03-05T08:50:30.001Z,101108.59
2023-03-05T08:52:58.048Z,101107.66
2023-03-05T08:55:26.365Z,101107.72
2023-03-05T08:57:55.801Z,101109.44
2023-03-05T09:00:24.168Z,101105.88
2023-03-05T09:02:52.402Z,101108.41
2023-03-05T09:05:20.674Z,101099.97
2023-03-05T09:07:48.674Z,101103.19
2023-03-05T09:10:18.340Z,101100.69
2023-03-05T09:12:46.207Z,101105.00
2023-03-05T09:15:15.785Z,101102.28
2023-03-05T09:17:43.878Z,101085.19
2023-03-05T09:20:14.461Z,101087.78
2023-03-05T09:22:42.689Z,101090.56
2023-03-05T09:25:13.138Z,101081.09
2023-03-05T09:27:40.992Z,101084.38
2023-03-05T09:30:10.127Z,101081.13
2023-03-05T09:32:39.454Z,101083.72
2023-03-05T09:35:08.736Z,101070.81
2023-03-05T09:37:36.634Z,101073.38
2023-03-05T09:40:05.005Z,101075.16
2023-03-05T09:42:50.403Z,101074.34
2023-03-05T09:45:22.243Z,101064.69
2023-03-05T09:47:59.027Z,101069.06
2023-03-05T09:50:37.554Z,101065.72
2023-03-05T09:53:26.727Z,101062.34
2023-03-05T09:55:56.836Z,101055.38
2023-03-05T09:58:35.154Z,101052.06
2023-03-05T10:01:07.491Z,101050.44
2023-03-05T10:03:48.766Z,101040.94
2023-03-05T10:06:22.825Z,101052.38
2023-03-05T10:08:56.151Z,101045.59
2023-03-05T10:11:37.506Z,101050.06
2023-03-05T10:14:06.094Z,101031.13
2023-03-05T10:17:02.020Z,101027.72
2023-03-05T10:20:04.721Z,101033.94
2023-03-05T10:22:35.091Z,101027.00
2023-03-05T10:25:18.914Z,101016.69
2023-03-05T10:27:52.560Z,101013.34
2023-03-05T10:30:54.665Z,101001.19
2023-03-05T10:33:33.566Z,101003.59
2023-03-05T10:36:45.084Z,100996.66
2023-03-05T10:39:35.903Z,100993.06
2023-03-05T10:42:12.250Z,100994.63
2023-03-05T10:44:45.286Z,100997.84
2023-03-05T10:47:19.388Z,100999.63
2023-03-05T10:49:51.951Z,100996.06
2023-03-05T10:52:26.419Z,100994.19
2023-03-05T10:54:54.570Z,100989.97
2023-03-05T10:57:24.902Z,100995.03
2023-03-05T10:59:55.850Z,100991.59
2023-03-05T11:02:27.910Z,100989.03
2023-03-05T11:04:55.918Z,100991.66
2023-03-05T11:07:34.544Z,100982.97
2023-03-05T11:10:21.412Z,100989.00
2023-03-05T11:12:49.361Z,100986.28
2023-03-05T11:15:30.326Z,100982.56
2023-03-05T11:18:24.169Z,100976.53
2023-03-05T11:20:52.187Z,100975.59
2023-03-05T11:23:23.861Z,100976.47
2023-03-05T11:26:02.216Z,100970.53
2023-03-05T11:28:34.036Z,100967.13
2023-03-05T11:31:09.423Z,100961.97
2023-03-05T11:33:38.330Z,100959.31
2023-03-05T11:36:24.713Z,100961.94
2023-03-05T11:38:57.127Z,100956.69
2023-03-05T11:41:31.035Z,100960.06
2023-03-05T11:44:00.651Z,100961.63
2023-03-05T11:46:29.303Z,100966.78
2023-03-05T11:48:58.156Z,100963.31
2023-03-05T11:51:37.366Z,100959.81
2023-03-05T11:54:13.923Z,100954.78
2023-03-05T11:56:44.789Z,100947.00
2023-03-05T11:59:17.570Z,100947.88
2023-03-05T12:01:51.156Z,100932.41
2023-03-05T12:04:20.605Z,100936.78
2023-03-05T12:06:51.360Z,100930.91
2023-03-05T12:09:27.687Z,100915.41
2023-03-05T12:12:03.057Z,100920.63
2023-03-05T12:14:39.881Z,100920.63
2023-03-05T12:17:17.892Z,100910.31
2023-03-05T12:19:53.629Z,100914.56
2023-03-05T12:22:24.109Z,100900.03
2023-03-05T12:24:53.483Z,100907.94
2023-03-05T12:27:36.824Z,100903.59
2023-03-05T12:30:06.351Z,100894.00
2023-03-05T12:33:02.230Z,100886.16
2023-03-05T12:35:42.875Z,100877.47
2023-03-05T12:38:32.672Z,100889.56
2023-03-05T12:41:38.440Z,100871.38
2023-03-05T12:44:21.012Z,100871.41
2023-03-05T12:47:17.770Z,100862.84
2023-03-05T12:49:46.881Z,100854.94
2023-03-05T12:52:26.491Z,100844.59
2023-03-05T12:55:23.644Z,100848.06
2023-03-05T12:57:58.354Z,100839.47
2023-03-05T13:00:33.711Z,100833.63
2023-03-05T13:03:05.906Z,100829.41
2023-03-05T13:05:36.674Z,100821.63
2023-03-05T13:08:15.769Z,100822.47
2023-03-05T13:10:50.923Z,100819.00
2023-03-05T13:13:21.665Z,100821.66
2023-03-05T13:15:51.612Z,100816.38
2023-03-05T13:18:22.352Z,100810.34
2023-03-05T13:21:02.500Z,100807.72
2023-03-05T13:23:30.429Z,100806.88
2023-03-05T13:26:05.390Z,100799.13
2023-03-05T13:28:34.850Z,100804.31
2023-03-05T13:31:04.990Z,100800.00
2023-03-05T13:33:35.011Z,100799.19
2023-03-05T13:36:03.375Z,100794.81
2023-03-05T13:38:37.121Z,100793.09
2023-03-05T13:41:08.566Z,100780.22
2023-03-05T13:43:43.929Z,100784.56
2023-03-05T13:46:12.292Z,100786.31
2023-03-05T13:48:40.413Z,100776.81
2023-03-05T13:51:09.620Z,100777.66
2023-03-05T13:53:37.560Z,100770.75
2023-03-05T13:56:07.934Z,100769.00
2023-03-05T13:58:48.064Z,100769.00
2023-03-05T14:01:25.150Z,100776.75
2023-03-05T14:03:56.283Z,100768.13
2023-03-05T14:06:27.746Z,100762.09
2023-03-05T14:09:04.222Z,100757.78
2023-03-05T14:11:32.130Z,100756.94
2023-03-05T14:14:07.953Z,100749.97
2023-03-05T14:16:35.924Z,100743.91
2023-03-05T14:19:07.271Z,100743.03
2023-03-05T14:21:48.191Z,100748.19
2023-03-05T14:24:22.713Z,100734.38
2023-03-05T14:26:53.147Z,100734.38
2023-03-05T14:29:25.676Z,100731.78
2023-03-05T14:31:57.710Z,100713.63
2023-03-05T14:34:31.020Z,100721.38
2023-03-05T14:37:03.173Z,100721.38
2023-03-05T14:39:46.845Z,100710.91
2023-03-05T14:42:30.938Z,100712.69
2023-03-05T14:45:01.922Z,100696.25
2023-03-05T14:47:30.028Z,100701.44
2023-03-05T14:49:58.122Z,100693.66
2023-03-05T14:52:26.883Z,100697.16
2023-03-05T14:54:55.870Z,100689.31
2023-03-05T14:57:27.821Z,100684.09
2023-03-05T14:59:56.529Z,100678.91
2023-03-05T15:02:27.610Z,100683.19
2023-03-05T15:04:55.505Z,100672.00
2023-03-05T15:07:27.801Z,100672.81
2023-03-05T15:09:55.805Z,100663.34
2023-03-05T15:12:24.815Z,100675.41
2023-03-05T15:14:53.349Z,100673.66
2023-03-05T15:17:23.759Z,100650.38
2023-03-05T15:19:53.785Z,100654.69
2023-03-05T15:22:21.700Z,100641.72
2023-03-05T15:24:49.654Z,100646.03
2023-03-05T15:27:17.505Z,100645.13
2023-03-05T15:29:45.602Z,100640.00
2023-03-05T15:32:13.575Z,100639.09
2023-03-05T15:34:41.570Z,100626.19
2023-03-05T15:37:10.808Z,100625.28
2023-03-05T15:39:38.828Z,100630.47
2023-03-05T15:42:07.165Z,100624.44
2023-03-05T15:44:35.143Z,100620.09
2023-03-05T15:47:03.171Z,100616.63
2023-03-05T15:49:31.079Z,100619.25
2023-03-05T15:51:59.137Z,100620.97
2023-03-05T15:54:28.636Z,100617.44
2023-03-05T15:56:56.490Z,100613.13
2023-03-05T15:59:25.187Z,100620.91
2023-03-05T16:01:53.802Z,100610.41
2023-03-05T16:04:21.743Z,100608.69
2023-03-05T16:06:51.380Z,100604.34
2023-03-05T16:09:21.730Z,100595.75
2023-03-05T16:11:51.570Z,100594.88
2023-03-05T16:14:24.182Z,100596.59
2023-03-05T16:16:54.554Z,100590.56
2023-03-05T16:19:25.714Z,100593.19
2023-03-05T16:21:53.679Z,100588.88
2023-03-05T16:24:22.006Z,100573.34
2023-03-05T16:26:51.287Z,100579.41
2023-03-05T16:29:19.318Z,100578.56
2023-03-05T16:31:47.697Z,100583.75
2023-03-05T16:34:16.248Z,100572.53
2023-03-05T16:36:48.968Z,100564.75
2023-03-05T16:39:16.964Z,100579.47
2023-03-05T16:41:44.929Z,100569.91
2023-03-05T16:44:14.450Z,100559.56
2023-03-05T16:46:43.981Z,100562.16
2023-03-05T16:49:12.621Z,100555.22
2023-03-05T16:51:40.738Z,100566.44
2023-03-05T16:54:10.214Z,100556.94
2023-03-05T16:56:38.431Z,100549.19
2023-03-05T16:59:06.694Z,100551.78
2023-03-05T17:01:36.128Z,100547.44
2023-03-05T17:04:04.464Z,100550.00
2023-03-05T17:06:34.756Z,100541.34
2023-03-05T17:09:03.042Z,100540.47
2023-03-05T17:11:31.981Z,100543.91
2023-03-05T17:13:59.975Z,100541.38
2023-03-05T17:16:28.204Z,100547.41
2023-03-05T17:18:57.445Z,100541.34
2023-03-05T17:21:25.604Z,100546.53
2023-03-05T17:23:53.543Z,100541.38
2023-03-05T17:26:21.750Z,100548.25
2023-03-05T17:28:50.168Z,100549.16
2023-03-05T17:31:18.268Z,100542.25
2023-03-05T17:33:46.496Z,100543.09
2023-03-05T17:36:17.654Z,100543.09
2023-03-05T17:38:46.401Z,100531.88
2023-03-05T17:41:14.942Z,100536.19
2023-03-05T17:43:43.463Z,100529.25
2023-03-05T17:46:11.974Z,100536.16
2023-03-05T17:48:40.487Z,100536.13
2023-03-05T17:51:10.807Z,100534.38
2023-03-05T17:53:40.705Z,100531.78
2023-03-05T17:56:10.564Z,100535.19
2023-03-05T17:58:39.284Z,100535.13
2023-03-05T18:01:08.294Z,100529.13
2023-03-05T18:03:36.638Z,100537.69
2023-03-05T18:06:05.442Z,100529.94
2023-03-05T18:08:33.753Z,100533.38
2023-03-05T18:11:03.211Z,100538.59
2023-03-05T18:13:31.434Z,100528.25
2023-03-05T18:16:00.078Z,100526.53
2023-03-05T18:18:28.286Z,100527.38
2023-03-05T18:20:56.700Z,100532.56
2023-03-05T18:23:24.867Z,100531.69
2023-03-05T18:25:52.910Z,100528.25
2023-03-05T18:28:22.706Z,100519.66
2023-03-05T18:30:50.720Z,100520.47
2023-03-05T18:33:21.088Z,100523.03
2023-03-05T18:35:52.129Z,100516.97
2023-03-05T18:38:20.786Z,100512.69
2023-03-05T18:40:51.179Z,100504.84
2023-03-05T18:43:20.744Z,100502.25
2023-03-05T18:45:51.403Z,100501.41
2023-03-05T18:48:19.736Z,100503.19
2023-03-05T18:50:50.069Z,100497.94
2023-03-05T18:53:18.058Z,100496.19
2023-03-05T18:55:46.048Z,100496.19
2023-03-05T18:58:15.415Z,100496.19
2023-03-05T19:00:44.879Z,100489.28
2023-03-05T19:03:14.410Z,100491.84
2023-03-05T19:05:42.796Z,100497.03
2023-03-05T19:08:11.262Z,100490.13
2023-03-05T19:10:40.024Z,100490.97
2023-03-05T19:13:18.705Z,100485.81
2023-03-05T19:15:46.694Z,100485.81
2023-03-05T19:18:15.912Z,100475.50
2023-03-05T19:20:44.159Z,100481.56
2023-03-05T19:23:12.795Z,100484.94
2023-03-05T19:25:41.423Z,100482.38
2023-03-05T19:28:09.517Z,100474.63
2023-03-05T19:30:38.143Z,100479.78
2023-03-05T19:33:06.244Z,100478.91
2023-03-05T19:35:35.552Z,100473.75
2023-03-05T19:38:03.357Z,100472.88
2023-03-05T19:40:31.275Z,100465.91
2023-03-05T19:42:59.467Z,100469.41
2023-03-05T19:45:27.329Z,100465.91
2023-03-05T19:47:55.199Z,100457.34
2023-03-05T19:50:23.261Z,100457.34
2023-03-05T19:52:52.514Z,100459.03
2023-03-05T19:55:20.654Z,100463.34
2023-03-05T19:57:48.844Z,100462.44
2023-03-05T20:00:17.325Z,100462.41
2023-03-05T20:02:45.166Z,100457.22
2023-03-05T20:05:13.300Z,100455.50
2023-03-05T20:07:41.266Z,100451.16
2023-03-05T20:10:12.082Z,100451.16
2023-03-05T20:12:39.951Z,100456.31
2023-03-05T20:15:08.878Z,100453.72
2023-03-05T20:17:36.937Z,100451.09
2023-03-05T20:20:05.595Z,100442.53
2023-03-05T20:22:33.729Z,100445.94
2023-03-05T20:25:01.640Z,100441.59
2023-03-05T20:27:30.994Z,100448.47
2023-03-05T20:29:59.685Z,100451.88
2023-03-05T20:32:27.644Z,100450.16
2023-03-05T20:34:56.140Z,100450.09
2023-03-05T20:37:29.920Z,100436.28
2023-03-05T20:39:58.064Z,100441.44
2023-03-05T20:42:26.033Z,100435.44
2023-03-05T20:44:55.358Z,100431.16
2023-03-05T20:47:32.321Z,100427.75
2023-03-05T20:50:00.305Z,100431.22
2023-03-05T20:52:28.210Z,100423.47
2023-03-05T20:54:56.139Z,100416.56
2023-03-05T20:57:24.244Z,100415.72
2023-03-05T20:59:52.238Z,100410.50
2023-03-05T21:02:21.782Z,100408.78
2023-03-05T21:04:49.929Z,100406.13
2023-03-05T21:07:17.854Z,100401.75
2023-03-05T21:09:45.956Z,100400.03
2023-03-05T21:12:13.883Z,100397.50
2023-03-05T21:14:41.766Z,100395.78
2023-03-05T21:17:10.030Z,100391.50
2023-03-05T21:19:40.074Z,100400.13
2023-03-05T21:22:08.107Z,100394.94
2023-03-05T21:24:52.044Z,100387.22
2023-03-05T21:27:19.876Z,100389.75
2023-03-05T21:29:47.740Z,100378.53
2023-03-05T21:32:15.972Z,100369.09
2023-03-05T21:34:45.581Z,100370.78
2023-03-05T21:37:13.625Z,100380.22
2023-03-05T21:39:41.524Z,100366.44
2023-03-05T21:42:10.489Z,100363.91
2023-03-05T21:44:38.752Z,100360.47
2023-03-05T21:47:06.643Z,100353.56
2023-03-05T21:49:34.721Z,100357.84
2023-03-05T21:52:09.302Z,100358.72
2023-03-05T21:54:37.895Z,100355.22
2023-03-05T21:57:06.620Z,100349.25
2023-03-05T21:59:34.772Z,100343.13
2023-03-05T22:02:03.001Z,100338.81
2023-03-05T22:04:30.944Z,100337.16
2023-03-05T22:06:58.766Z,100328.50
2023-03-05T22:09:28.045Z,100334.56
2023-03-05T22:11:55.901Z,100323.38
2023-03-05T22:14:25.618Z,100321.66
2023-03-05T22:16:55.045Z,100317.34
2023-03-05T22:19:23.406Z,100314.66
2023-03-05T22:21:51.252Z,100304.38
2023-03-05T22:24:19.194Z,100310.47
2023-03-05T22:26:48.620Z,100306.16
2023-03-05T22:29:17.440Z,100298.38
2023-03-05T22:31:46.059Z,100297.47
2023-03-05T22:34:13.939Z,100289.72
2023-03-05T22:36:41.975Z,100293.22
2023-03-05T22:39:09.885Z,100286.34
2023-03-05T22:41:37.749Z,100286.34
2023-03-05T22:44:07.110Z,100284.63
2023-03-05T22:46:34.987Z,100282.00
2023-03-05T22:49:02.856Z,100264.78
2023-03-05T22:51:31.068Z,100263.03
2023-03-05T22:53:59.001Z,100273.38
2023-03-05T22:56:26.932Z,100267.34
2023-03-05T22:58:54.909Z,100254.47
2023-03-05T23:01:26.024Z,100276.00
2023-03-05T23:04:01.502Z,100270.84
2023-03-05T23:06:29.583Z,100262.22
2023-03-05T23:08:58.036Z,100268.28
2023-03-05T23:11:25.884Z,100270.81
2023-03-05T23:13:53.900Z,100267.41
2023-03-05T23:16:21.911Z,100269.16
2023-03-05T23:18:51.256Z,100254.50
2023-03-05T23:21:19.659Z,100257.03
2023-03-05T23:23:47.570Z,100246.69
2023-03-05T23:26:15.556Z,100251.00
2023-03-05T23:28:43.555Z,100245.00
2023-03-05T23:31:11.562Z,100258.75
2023-03-05T23:33:39.822Z,100250.13
2023-03-05T23:36:09.705Z,100254.41
2023-03-05T23:38:37.761Z,100257.03
2023-03-05T23:41:09.453Z,100247.53
2023-03-05T23:43:37.417Z,100251.88
2023-03-05T23:46:11.512Z,100246.69
2023-03-05T23:48:39.604Z,100247.50
2023-03-05T23:51:11.474Z,100241.53
2023-03-05T23:53:39.658Z,100239.78
2023-03-05T23:56:12.732Z,100237.19
2023-03-05T23:58:40.777Z,100229.41
